createdAt,value
2017-07-05T00:01:05.321Z,99.90
2017-07-05T00:03:32.849Z,99.90
2017-07-05T00:06:00.393Z,99.90
2017-07-05T00:08:27.918Z,99.90
2017-07-05T00:10:56.204Z,99.90
2017-07-05T00:13:23.760Z,99.90
2017-07-05T00:15:51.287Z,99.90
2017-07-05T00:18:18.812Z,99.90
2017-07-05T00:20:46.363Z,99.90
2017-07-05T00:23:13.891Z,99.90
2017-07-05T00:25:41.431Z,99.90
2017-07-05T00:28:08.983Z,99.90
2017-07-05T00:30:36.507Z,99.90
2017-07-05T00:33:04.032Z,99.90
2017-07-05T00:35:31.599Z,99.90
2017-07-05T00:37:59.134Z,99.90
2017-07-05T00:40:26.666Z,99.90
2017-07-05T00:42:54.214Z,99.90
2017-07-05T00:45:21.859Z,99.90
2017-07-05T00:47:49.382Z,99.90
2017-07-05T00:50:17.712Z,99.90
2017-07-05T00:52:45.258Z,99.90
2017-07-05T00:55:12.918Z,99.90
2017-07-05T00:57:40.463Z,99.90
2017-07-05T01:00:07.994Z,99.90
2017-07-05T01:02:35.532Z,99.90
2017-07-05T01:05:03.085Z,99.90
2017-07-05T01:07:30.621Z,99.90
2017-07-05T01:09:58.174Z,99.90
2017-07-05T01:12:25.731Z,99.90
2017-07-05T01:14:53.273Z,99.90
2017-07-05T01:17:20.797Z,99.90
2017-07-05T01:19:48.421Z,99.90
2017-07-05T01:22:15.945Z,99.90
2017-07-05T01:24:43.479Z,99.90
2017-07-05T01:27:11.036Z,99.90
2017-07-05T01:29:39.342Z,99.90
2017-07-05T01:32:06.875Z,99.90
2017-07-05T01:34:35.189Z,99.90
2017-07-05T01:37:02.715Z,99.90
2017-07-05T01:39:31.011Z,99.90
2017-07-05T01:41:58.562Z,99.90
2017-07-05T01:44:26.872Z,99.90
2017-07-05T01:46:54.398Z,99.90
2017-07-05T01:49:21.958Z,99.90
2017-07-05T01:51:50.278Z,99.90
2017-07-05T01:54:17.812Z,99.90
2017-07-05T01:56:45.370Z,99.90
2017-07-05T01:59:12.905Z,99.90
2017-07-05T02:01:40.442Z,99.90
2017-07-05T02:04:08.010Z,99.90
2017-07-05T02:06:35.550Z,99.90
2017-07-05T02:09:03.085Z,99.90
2017-07-05T02:11:30.634Z,99.90
2017-07-05T02:13:58.420Z,99.90
2017-07-05T02:16:25.952Z,99.90
2017-07-05T02:18:53.519Z,99.90
2017-07-05T02:21:21.061Z,99.90
2017-07-05T02:23:48.597Z,99.90
2017-07-05T02:26:16.155Z,99.90
2017-07-05T02:28:44.467Z,99.90
2017-07-05T02:31:12.042Z,99.90
2017-07-05T02:33:39.590Z,99.90
2017-07-05T02:36:07.114Z,99.90
2017-07-05T02:38:35.418Z,99.90
2017-07-05T02:41:02.966Z,99.90
2017-07-05T02:43:31.262Z,99.90
2017-07-05T02:45:58.786Z,99.90
2017-07-05T02:48:27.117Z,99.90
2017-07-05T02:50:54.650Z,99.90
2017-07-05T02:53:22.184Z,99.90
2017-07-05T02:55:50.578Z,99.90
2017-07-05T02:58:18.109Z,99.90
2017-07-05T03:00:45.648Z,99.90
2017-07-05T03:03:13.213Z,99.90
2017-07-05T03:05:40.847Z,99.90
2017-07-05T03:08:08.403Z,99.90
2017-07-05T03:10:35.954Z,99.90
2017-07-05T03:13:03.493Z,99.90
2017-07-05T03:15:31.037Z,99.90
2017-07-05T03:17:59.393Z,99.90
2017-07-05T03:20:26.919Z,99.90
2017-07-05T03:22:54.445Z,99.90
2017-07-05T03:25:21.995Z,99.90
2017-07-05T03:27:50.290Z,99.90
2017-07-05T03:30:17.838Z,99.90
2017-07-05T03:32:46.155Z,99.90
2017-07-05T03:35:13.687Z,99.90
2017-07-05T03:37:41.234Z,99.90
2017-07-05T03:40:08.795Z,99.90
2017-07-05T03:42:37.179Z,99.90
2017-07-05T03:45:04.715Z,99.90
2017-07-05T03:47:32.275Z,99.90
2017-07-05T03:49:59.803Z,99.90
2017-07-05T03:52:27.334Z,99.90
2017-07-05T03:54:54.906Z,99.90
2017-07-05T03:57:22.434Z,99.90
2017-07-05T03:59:49.968Z,99.90
2017-07-05T04:02:18.302Z,99.90
2017-07-05T04:04:45.834Z,99.90
2017-07-05T04:07:13.374Z,99.90
2017-07-05T04:09:41.702Z,99.90
2017-07-05T04:12:09.270Z,99.90
2017-07-05T04:14:36.805Z,99.90
2017-07-05T04:17:04.367Z,99.90
2017-07-05T04:19:31.898Z,99.90
2017-07-05T04:21:59.425Z,99.90
2017-07-05T04:24:27.002Z,99.90
2017-07-05T04:26:54.536Z,99.90
2017-07-05T04:29:22.058Z,99.90
2017-07-05T04:31:49.619Z,99.90
2017-07-05T04:34:17.152Z,99.90
2017-07-05T04:36:45.463Z,99.90
2017-07-05T04:39:13.128Z,99.90
2017-07-05T04:41:40.660Z,99.90
2017-07-05T04:44:08.195Z,99.90
2017-07-05T04:46:35.775Z,99.90
2017-07-05T04:49:04.074Z,99.90
2017-07-05T04:51:31.610Z,99.90
2017-07-05T04:53:59.166Z,99.90
2017-07-05T04:56:27.481Z,99.90
2017-07-05T04:58:55.006Z,99.90
2017-07-05T05:01:23.326Z,99.90
2017-07-05T05:03:50.862Z,99.90
2017-07-05T05:06:18.882Z,99.90
2017-07-05T05:08:46.430Z,99.90
2017-07-05T05:11:13.966Z,99.90
2017-07-05T05:13:41.519Z,99.90
2017-07-05T05:16:09.069Z,99.90
2017-07-05T05:18:36.599Z,99.90
2017-07-05T05:21:04.147Z,99.90
2017-07-05T05:23:31.707Z,99.90
2017-07-05T05:25:59.243Z,99.90
2017-07-05T05:28:26.779Z,99.90
2017-07-05T05:30:54.326Z,99.90
2017-07-05T05:33:21.859Z,99.90
2017-07-05T05:35:50.154Z,99.90
2017-07-05T05:38:17.751Z,99.90
2017-07-05T05:40:45.283Z,99.90
2017-07-05T05:43:12.862Z,99.90
2017-07-05T05:45:40.419Z,99.90
2017-07-05T05:48:07.963Z,99.90
2017-07-05T05:50:35.499Z,99.90
2017-07-05T05:53:03.822Z,99.90
2017-07-05T05:55:31.375Z,99.90
2017-07-05T05:57:58.940Z,99.90
2017-07-05T06:00:26.494Z,99.90
2017-07-05T06:02:54.028Z,99.90
2017-07-05T06:05:21.562Z,99.90
2017-07-05T06:07:49.902Z,99.90
2017-07-05T06:10:17.458Z,99.90
2017-07-05T06:12:45.000Z,99.90
2017-07-05T06:15:12.665Z,99.90
2017-07-05T06:17:40.234Z,99.90
2017-07-05T06:20:07.765Z,99.90
2017-07-05T06:22:35.317Z,99.90
2017-07-05T06:25:02.857Z,99.90
2017-07-05T06:27:31.198Z,99.90
2017-07-05T06:29:58.752Z,99.90
2017-07-05T06:32:26.283Z,99.90
2017-07-05T06:34:53.875Z,99.90
2017-07-05T06:37:21.417Z,99.90
2017-07-05T06:39:49.085Z,99.90
2017-07-05T06:42:16.644Z,99.90
2017-07-05T06:44:44.194Z,99.90
2017-07-05T06:47:11.772Z,99.90
2017-07-05T06:49:39.328Z,99.90
2017-07-05T06:52:06.873Z,99.90
2017-07-05T06:54:34.401Z,99.90
2017-07-05T06:57:02.690Z,99.60
2017-07-05T06:59:30.251Z,99.60
2017-07-05T07:01:57.770Z,99.20
2017-07-05T07:04:26.333Z,99.20
2017-07-05T07:06:53.883Z,98.00
2017-07-05T07:09:21.418Z,97.60
2017-07-05T07:11:48.950Z,97.40
2017-07-05T07:14:17.266Z,96.90
2017-07-05T07:16:44.798Z,96.90
2017-07-05T07:19:13.112Z,95.30
2017-07-05T07:21:40.660Z,95.30
2017-07-05T07:24:08.261Z,94.80
2017-07-05T07:26:35.802Z,93.30
2017-07-05T07:29:03.365Z,94.10
2017-07-05T07:31:30.902Z,94.00
2017-07-05T07:33:58.481Z,92.70
2017-07-05T07:36:26.038Z,92.40
2017-07-05T07:38:53.693Z,92.10
2017-07-05T07:41:21.267Z,92.40
2017-07-05T07:43:48.815Z,90.20
2017-07-05T07:46:16.347Z,87.40
2017-07-05T07:48:43.876Z,85.80
2017-07-05T07:51:11.419Z,85.00
2017-07-05T07:53:38.971Z,83.10
2017-07-05T07:56:06.495Z,79.30
2017-07-05T07:58:34.046Z,80.80
2017-07-05T08:01:01.634Z,79.90
2017-07-05T08:03:29.295Z,78.00
2017-07-05T08:05:56.858Z,78.90
2017-07-05T08:08:24.410Z,78.70
2017-07-05T08:10:51.950Z,77.50
2017-07-05T08:13:19.521Z,77.10
2017-07-05T08:15:47.098Z,74.90
2017-07-05T08:18:14.754Z,73.30
2017-07-05T08:20:42.312Z,73.40
2017-07-05T08:23:09.845Z,72.40
2017-07-05T08:25:37.374Z,70.90
2017-07-05T08:28:04.917Z,71.30
2017-07-05T08:30:32.447Z,71.10
2017-07-05T08:33:00.014Z,70.90
2017-07-05T08:35:27.568Z,70.20
2017-07-05T08:37:55.132Z,69.00
2017-07-05T08:40:22.788Z,66.30
2017-07-05T08:42:50.349Z,65.30
2017-07-05T08:45:17.871Z,64.70
2017-07-05T08:47:46.175Z,64.10
2017-07-05T08:50:13.852Z,64.10
2017-07-05T08:52:41.379Z,66.50
2017-07-05T08:55:08.910Z,67.10
2017-07-05T08:57:36.459Z,67.80
2017-07-05T09:00:03.987Z,66.40
2017-07-05T09:02:31.558Z,67.40
2017-07-05T09:04:59.100Z,68.40
2017-07-05T09:07:26.638Z,68.00
2017-07-05T09:09:54.838Z,67.10
2017-07-05T09:12:22.410Z,68.40
2017-07-05T09:14:49.958Z,65.90
2017-07-05T09:17:17.490Z,65.60
2017-07-05T09:19:45.034Z,64.90
2017-07-05T09:22:12.641Z,65.00
2017-07-05T09:24:40.299Z,63.80
2017-07-05T09:27:07.858Z,65.40
2017-07-05T09:29:35.426Z,63.60
2017-07-05T09:32:02.955Z,65.50
2017-07-05T09:34:30.553Z,64.90
2017-07-05T09:36:58.092Z,63.70
2017-07-05T09:39:25.615Z,65.30
2017-07-05T09:41:53.939Z,65.60
2017-07-05T09:44:21.810Z,65.60
2017-07-05T09:46:49.466Z,65.30
2017-07-05T09:49:17.023Z,62.80
2017-07-05T09:51:44.584Z,65.90
2017-07-05T09:54:12.107Z,64.00
2017-07-05T09:56:40.423Z,62.20
2017-07-05T09:59:07.982Z,62.20
2017-07-05T10:01:35.542Z,60.70
2017-07-05T10:04:03.087Z,62.20
2017-07-05T10:06:30.670Z,62.30
2017-07-05T10:08:58.245Z,64.50
2017-07-05T10:11:25.787Z,59.40
2017-07-05T10:13:53.336Z,60.50
2017-07-05T10:16:20.860Z,60.60
2017-07-05T10:18:48.406Z,60.50
2017-07-05T10:21:16.702Z,60.90
2017-07-05T10:23:45.025Z,60.70
2017-07-05T10:26:12.926Z,60.70
2017-07-05T10:28:40.578Z,60.50
2017-07-05T10:31:08.099Z,59.30
2017-07-05T10:33:35.663Z,58.20
2017-07-05T10:36:03.201Z,57.50
2017-07-05T10:38:30.721Z,59.00
2017-07-05T10:40:58.270Z,58.20
2017-07-05T10:43:25.999Z,57.90
2017-07-05T10:45:53.519Z,57.70
2017-07-05T10:48:21.939Z,55.00
2017-07-05T10:50:49.600Z,54.90
2017-07-05T10:53:17.164Z,54.10
2017-07-05T10:55:44.707Z,52.80
2017-07-05T10:58:12.235Z,52.00
2017-07-05T11:00:40.525Z,50.50
2017-07-05T11:03:08.831Z,52.30
2017-07-05T11:05:36.359Z,52.20
2017-07-05T11:08:03.943Z,49.60
2017-07-05T11:10:31.519Z,49.70
2017-07-05T11:12:59.046Z,46.50
2017-07-05T11:15:26.573Z,47.30
2017-07-05T11:17:54.140Z,44.10
2017-07-05T11:20:21.730Z,44.70
2017-07-05T11:22:49.257Z,42.90
2017-07-05T11:25:16.806Z,42.60
2017-07-05T11:27:44.336Z,42.40
2017-07-05T11:30:11.899Z,41.30
2017-07-05T11:32:39.458Z,40.60
2017-07-05T11:35:07.018Z,37.10
2017-07-05T11:37:34.577Z,36.10
2017-07-05T11:40:02.139Z,35.20
2017-07-05T11:42:29.673Z,35.10
2017-07-05T11:44:57.218Z,34.20
2017-07-05T11:47:24.771Z,33.30
2017-07-05T11:49:53.093Z,31.40
2017-07-05T11:52:20.617Z,31.30
2017-07-05T11:54:48.212Z,30.90
2017-07-05T11:57:15.769Z,32.00
2017-07-05T11:59:43.321Z,30.20
2017-07-05T12:02:10.872Z,29.40
2017-07-05T12:04:38.397Z,29.50
2017-07-05T12:07:06.718Z,29.20
2017-07-05T12:09:34.263Z,29.20
2017-07-05T12:12:01.808Z,28.40
2017-07-05T12:14:29.710Z,29.10
2017-07-05T12:16:57.266Z,29.00
2017-07-05T12:19:25.163Z,29.20
2017-07-05T12:21:52.690Z,29.80
2017-07-05T12:24:20.238Z,29.10
2017-07-05T12:26:47.815Z,30.00
2017-07-05T12:29:15.350Z,30.00
2017-07-05T12:31:42.938Z,29.30
2017-07-05T12:34:10.498Z,28.20
2017-07-05T12:36:38.155Z,28.90
2017-07-05T12:39:05.728Z,28.90
2017-07-05T12:41:33.277Z,27.40
2017-07-05T12:44:00.846Z,26.60
2017-07-05T12:46:28.392Z,27.20
2017-07-05T12:48:57.554Z,27.80
2017-07-05T12:51:25.257Z,27.70
2017-07-05T12:53:52.810Z,28.30
2017-07-05T12:56:20.369Z,27.40
2017-07-05T12:58:47.886Z,28.00
2017-07-05T13:01:16.216Z,27.40
2017-07-05T13:03:43.743Z,27.40
2017-07-05T13:06:11.329Z,26.30
2017-07-05T13:08:38.877Z,25.70
2017-07-05T13:11:06.455Z,26.40
2017-07-05T13:13:34.483Z,26.80
2017-07-05T13:16:02.893Z,27.90
2017-07-05T13:18:30.418Z,27.80
2017-07-05T13:20:58.735Z,26.90
2017-07-05T13:23:26.302Z,26.90
2017-07-05T13:25:53.859Z,25.90
2017-07-05T13:28:21.414Z,24.80
2017-07-05T13:30:48.979Z,25.10
2017-07-05T13:33:16.530Z,25.00
2017-07-05T13:35:44.191Z,25.20
2017-07-05T13:38:11.752Z,24.70
2017-07-05T13:40:39.318Z,24.70
2017-07-05T13:43:06.880Z,25.40
2017-07-05T13:45:34.434Z,25.70
2017-07-05T13:48:02.006Z,26.90
2017-07-05T13:50:29.552Z,27.10
2017-07-05T13:52:57.211Z,28.10
2017-07-05T13:55:24.789Z,27.60
2017-07-05T13:57:52.355Z,28.70
2017-07-05T14:00:19.910Z,29.80
2017-07-05T14:02:47.460Z,32.20
2017-07-05T14:05:15.014Z,29.50
2017-07-05T14:07:42.673Z,28.10
2017-07-05T14:10:10.234Z,27.20
2017-07-05T14:12:37.808Z,26.40
2017-07-05T14:15:05.460Z,26.50
2017-07-05T14:17:33.014Z,26.60
2017-07-05T14:20:00.550Z,26.60
2017-07-05T14:22:28.146Z,25.40
2017-07-05T14:24:55.703Z,25.10
2017-07-05T14:27:23.268Z,24.60
2017-07-05T14:29:50.820Z,23.70
2017-07-05T14:32:18.379Z,24.60
2017-07-05T14:34:45.939Z,24.60
2017-07-05T14:37:13.487Z,24.30
2017-07-05T14:39:41.022Z,24.80
2017-07-05T14:42:08.542Z,24.10
2017-07-05T14:44:36.273Z,24.10
2017-07-05T14:47:03.936Z,24.20
2017-07-05T14:49:31.462Z,24.60
2017-07-05T14:51:59.774Z,24.70
2017-07-05T14:54:27.433Z,25.00
2017-07-05T14:56:54.999Z,25.30
2017-07-05T14:59:22.547Z,24.90
2017-07-05T15:01:50.127Z,25.10
2017-07-05T15:04:17.657Z,24.80
2017-07-05T15:06:45.620Z,25.20
2017-07-05T15:09:13.140Z,24.60
2017-07-05T15:11:40.668Z,24.80
2017-07-05T15:14:08.319Z,25.20
2017-07-05T15:16:35.882Z,25.60
2017-07-05T15:19:03.402Z,25.50
2017-07-05T15:21:31.715Z,25.00
2017-07-05T15:23:59.244Z,25.00
2017-07-05T15:26:26.767Z,25.20
2017-07-05T15:28:54.311Z,25.70
2017-07-05T15:31:21.861Z,25.40
2017-07-05T15:33:49.390Z,25.90
2017-07-05T15:36:16.931Z,26.40
2017-07-05T15:38:45.248Z,26.60
2017-07-05T15:41:12.911Z,26.50
2017-07-05T15:43:40.477Z,27.70
2017-07-05T15:46:08.558Z,27.20
2017-07-05T15:48:36.114Z,27.90
2017-07-05T15:51:03.665Z,28.50
2017-07-05T15:53:31.224Z,29.80
2017-07-05T15:55:58.883Z,30.30
2017-07-05T15:58:26.464Z,31.20
2017-07-05T16:00:54.009Z,31.90
2017-07-05T16:03:21.565Z,31.80
2017-07-05T16:05:49.132Z,30.60
2017-07-05T16:08:16.659Z,30.90
2017-07-05T16:10:44.187Z,30.80
2017-07-05T16:13:11.817Z,30.40
2017-07-05T16:15:39.353Z,29.80
2017-07-05T16:18:07.025Z,29.80
2017-07-05T16:20:34.580Z,29.70
2017-07-05T16:23:02.101Z,29.50
2017-07-05T16:25:30.390Z,30.20
2017-07-05T16:27:57.982Z,30.10
2017-07-05T16:30:25.541Z,30.10
2017-07-05T16:32:53.318Z,32.00
2017-07-05T16:35:20.966Z,33.00
2017-07-05T16:37:48.535Z,33.80
2017-07-05T16:40:16.095Z,33.10
2017-07-05T16:42:43.646Z,33.00
2017-07-05T16:45:11.170Z,33.80
2017-07-05T16:47:39.482Z,34.50
2017-07-05T16:50:07.036Z,34.40
2017-07-05T16:52:34.609Z,35.20
2017-07-05T16:55:02.146Z,34.90
2017-07-05T16:57:29.738Z,35.60
2017-07-05T16:59:57.276Z,35.60
2017-07-05T17:02:24.835Z,35.70
2017-07-05T17:04:52.646Z,36.40
2017-07-05T17:07:20.267Z,36.80
2017-07-05T17:09:47.795Z,36.60
2017-07-05T17:12:15.388Z,37.30
2017-07-05T17:14:42.915Z,37.40
2017-07-05T17:17:10.601Z,37.90
2017-07-05T17:19:38.168Z,38.40
2017-07-05T17:22:05.699Z,38.60
2017-07-05T17:24:33.222Z,38.60
2017-07-05T17:27:00.850Z,38.20
2017-07-05T17:29:28.369Z,39.10
2017-07-05T17:31:56.661Z,39.10
2017-07-05T17:34:24.239Z,39.00
2017-07-05T17:36:51.905Z,39.40
2017-07-05T17:39:19.422Z,39.50
2017-07-05T17:41:47.735Z,39.40
2017-07-05T17:44:15.268Z,39.30
2017-07-05T17:46:42.794Z,39.90
2017-07-05T17:49:10.346Z,40.30
2017-07-05T17:51:37.985Z,40.70
2017-07-05T17:54:05.542Z,41.30
2017-07-05T17:56:33.193Z,41.40
2017-07-05T17:59:00.761Z,42.10
2017-07-05T18:01:28.325Z,41.10
2017-07-05T18:03:55.873Z,42.00
2017-07-05T18:06:23.403Z,42.10
2017-07-05T18:08:51.001Z,42.50
2017-07-05T18:11:18.656Z,42.90
2017-07-05T18:13:46.181Z,42.70
2017-07-05T18:16:13.701Z,43.00
2017-07-05T18:18:41.247Z,43.60
2017-07-05T18:21:08.779Z,44.00
2017-07-05T18:23:36.362Z,44.90
2017-07-05T18:26:03.899Z,45.00
2017-07-05T18:28:31.484Z,45.00
2017-07-05T18:30:59.040Z,45.60
2017-07-05T18:33:26.603Z,46.00
2017-07-05T18:35:54.734Z,45.90
2017-07-05T18:38:22.262Z,46.30
2017-07-05T18:40:49.818Z,46.30
2017-07-05T18:43:17.340Z,46.60
2017-07-05T18:45:44.875Z,47.20
2017-07-05T18:48:12.562Z,47.20
2017-07-05T18:50:40.090Z,47.80
2017-07-05T18:53:08.400Z,48.50
2017-07-05T18:55:36.060Z,48.50
2017-07-05T18:58:03.581Z,48.70
2017-07-05T19:00:31.138Z,49.00
2017-07-05T19:02:59.458Z,49.80
2017-07-05T19:05:27.020Z,49.80
2017-07-05T19:07:54.588Z,50.30
2017-07-05T19:10:22.140Z,50.90
2017-07-05T19:12:50.018Z,51.60
2017-07-05T19:15:17.569Z,52.10
2017-07-05T19:17:45.127Z,52.70
2017-07-05T19:20:12.665Z,53.40
2017-07-05T19:22:40.193Z,53.80
2017-07-05T19:25:08.507Z,54.90
2017-07-05T19:27:36.031Z,55.00
2017-07-05T19:30:04.325Z,55.20
2017-07-05T19:32:31.867Z,55.60
2017-07-05T19:35:00.198Z,56.90
2017-07-05T19:37:28.399Z,56.70
2017-07-05T19:39:55.946Z,57.40
2017-07-05T19:42:23.481Z,57.90
2017-07-05T19:44:51.183Z,58.50
2017-07-05T19:47:18.731Z,59.10
2017-07-05T19:49:46.270Z,59.90
2017-07-05T19:52:13.838Z,61.50
2017-07-05T19:54:41.491Z,62.60
2017-07-05T19:57:09.146Z,64.50
2017-07-05T19:59:36.810Z,66.70
2017-07-05T20:02:04.356Z,68.00
2017-07-05T20:04:31.878Z,69.60
2017-07-05T20:07:00.257Z,72.60
2017-07-05T20:09:28.581Z,74.60
2017-07-05T20:11:56.114Z,74.10
2017-07-05T20:14:23.649Z,75.70
2017-07-05T20:16:51.363Z,77.10
2017-07-05T20:19:18.935Z,78.00
2017-07-05T20:21:46.479Z,79.50
2017-07-05T20:24:14.015Z,80.80
2017-07-05T20:26:41.560Z,82.20
2017-07-05T20:29:09.852Z,83.40
2017-07-05T20:31:37.439Z,83.30
2017-07-05T20:34:04.966Z,83.30
2017-07-05T20:36:32.555Z,83.30
2017-07-05T20:39:00.124Z,83.10
2017-07-05T20:41:27.687Z,82.60
2017-07-05T20:43:56.616Z,82.00
2017-07-05T20:46:24.210Z,82.00
2017-07-05T20:48:51.773Z,82.50
2017-07-05T20:51:19.476Z,83.30
2017-07-05T20:53:47.056Z,83.50
2017-07-05T20:56:14.621Z,83.90
2017-07-05T20:58:42.968Z,84.80
2017-07-05T21:01:10.556Z,84.70
2017-07-05T21:03:38.296Z,85.50
2017-07-05T21:06:05.895Z,86.10
2017-07-05T21:08:34.316Z,87.80
2017-07-05T21:11:02.240Z,87.80
2017-07-05T21:13:29.899Z,88.40
2017-07-05T21:15:57.647Z,89.20
2017-07-05T21:18:25.246Z,89.80
2017-07-05T21:20:52.872Z,90.00
2017-07-05T21:23:20.534Z,90.30
2017-07-05T21:25:48.097Z,90.60
2017-07-05T21:28:16.550Z,91.20
2017-07-05T21:30:44.297Z,91.30
2017-07-05T21:33:11.900Z,91.40
2017-07-05T21:35:40.339Z,91.00
2017-07-05T21:38:07.945Z,90.90
2017-07-05T21:40:35.517Z,91.00
2017-07-05T21:43:03.846Z,91.10
2017-07-05T21:45:31.541Z,91.10
2017-07-05T21:47:59.200Z,91.70
2017-07-05T21:50:26.865Z,92.10
2017-07-05T21:52:54.474Z,93.00
2017-07-05T21:55:22.086Z,93.40
2017-07-05T21:57:49.660Z,93.90
2017-07-05T22:00:18.008Z,95.00
2017-07-05T22:02:46.436Z,95.60
2017-07-05T22:05:14.068Z,95.60
2017-07-05T22:07:41.729Z,95.90
2017-07-05T22:10:09.392Z,96.20
2017-07-05T22:12:36.959Z,96.40
2017-07-05T22:15:05.375Z,96.30
2017-07-05T22:17:32.943Z,96.30
2017-07-05T22:20:00.507Z,96.60
2017-07-05T22:22:28.107Z,96.60
2017-07-05T22:24:55.681Z,96.90
2017-07-05T22:27:24.021Z,97.20
2017-07-05T22:29:51.613Z,97.20
2017-07-05T22:32:19.172Z,97.30
2017-07-05T22:34:47.478Z,98.00
2017-07-05T22:37:15.045Z,98.00
2017-07-05T22:39:42.597Z,98.10
2017-07-05T22:42:10.081Z,98.60
2017-07-05T22:44:37.586Z,98.80
2017-07-05T22:47:05.837Z,99.80
2017-07-05T22:49:33.343Z,99.70
2017-07-05T22:52:01.617Z,99.90
2017-07-05T22:54:29.902Z,99.90
2017-07-05T22:56:57.457Z,99.90
2017-07-05T22:59:24.973Z,99.90
2017-07-05T23:01:52.500Z,99.90
2017-07-05T23:04:20.032Z,99.90
2017-07-05T23:06:48.311Z,99.90
2017-07-05T23:09:15.895Z,99.90
2017-07-05T23:11:43.393Z,99.90
2017-07-05T23:14:10.912Z,99.90
2017-07-05T23:16:38.420Z,99.90
2017-07-05T23:19:05.929Z,99.90
2017-07-05T23:21:33.390Z,99.90
2017-07-05T23:24:00.906Z,99.90
2017-07-05T23:26:29.158Z,99.90
2017-07-05T23:28:56.686Z,99.90
2017-07-05T23:31:24.174Z,99.90
2017-07-05T23:33:51.643Z,99.90
2017-07-05T23:36:19.910Z,99.90
2017-07-05T23:38:47.372Z,99.90
2017-07-05T23:41:14.817Z,99.90
2017-07-05T23:43:42.388Z,99.90
2017-07-05T23:46:09.840Z,99.90
2017-07-05T23:48:37.308Z,99.90
2017-07-05T23:51:04.780Z,99.90
2017-07-05T23:53:32.995Z,99.90
2017-07-05T23:56:00.522Z,99.90
2017-07-05T23:58:28.859Z,99.90
